Terminal Aerodrome Forecast
Issued by NWS Charleston, WV

Current Version | Previous Version | Graphics & Text | Print | Product List | Glossary On
Versions: 1 2 3 4 5 6 7 8 9 10 11 12 13 14 15 16 17 18 19 20 21 22 23 24 25 26 27 28 29
000
FTUS41 KRLX 260400 AAB
TAFPKB
TAF AMD
KPKB 260408Z 2604/2624 04004KT 3SM -RA BR SCT025 OVC035
      TEMPO 2604/2607 1 1/2SM -RA BR BKN025
     FM260700 05004KT 3SM -RA BR OVC015
     FM261300 35005KT 2SM -SN BR OVC004=

USA.gov is the U.S. government's official web portal to all federal, state and local government web resources and services.